createdAt,value
2023-02-26T00:02:05.250Z,71.10
2023-02-26T00:04:32.549Z,71.00
2023-02-26T00:07:10.302Z,71.10
2023-02-26T00:09:44.916Z,71.00
2023-02-26T00:12:12.898Z,71.20
2023-02-26T00:14:40.687Z,71.00
2023-02-26T00:17:42.901Z,71.10
2023-02-26T00:20:12.155Z,70.80
2023-02-26T00:22:40.477Z,70.90
2023-02-26T00:25:08.378Z,70.90
2023-02-26T00:27:36.327Z,70.90
2023-02-26T00:30:06.271Z,70.70
2023-02-26T00:32:35.352Z,70.80
2023-02-26T00:35:02.873Z,71.00
2023-02-26T00:38:09.692Z,71.10
2023-02-26T00:40:54.505Z,71.20
2023-02-26T00:43:31.912Z,71.10
2023-02-26T00:46:04.386Z,71.00
2023-02-26T00:48:54.786Z,71.10
2023-02-26T00:51:48.514Z,71.20
2023-02-26T00:54:28.256Z,71.30
2023-02-26T00:57:00.575Z,71.20
2023-02-26T00:59:27.932Z,71.20
2023-02-26T01:01:55.031Z,71.40
2023-02-26T01:04:23.873Z,71.30
2023-02-26T01:06:54.099Z,71.30
2023-02-26T01:09:29.356Z,71.20
2023-02-26T01:12:01.741Z,71.20
2023-02-26T01:14:32.759Z,71.30
2023-02-26T01:17:04.331Z,71.40
2023-02-26T01:19:40.351Z,71.50
2023-02-26T01:22:16.392Z,71.40
2023-02-26T01:24:43.926Z,71.50
2023-02-26T01:27:11.361Z,71.50
2023-02-26T01:29:44.350Z,71.40
2023-02-26T01:32:30.071Z,71.20
2023-02-26T01:35:26.612Z,71.20
2023-02-26T01:38:06.710Z,71.20
2023-02-26T01:40:55.547Z,71.30
2023-02-26T01:43:59.744Z,71.40
2023-02-26T01:46:27.003Z,71.10
2023-02-26T01:48:56.647Z,71.00
2023-02-26T01:51:58.988Z,71.00
2023-02-26T01:54:38.469Z,71.20
2023-02-26T01:57:11.415Z,71.10
2023-02-26T01:59:47.997Z,71.10
2023-02-26T02:02:25.191Z,71.20
2023-02-26T02:04:54.016Z,71.20
2023-02-26T02:07:21.356Z,71.10
2023-02-26T02:09:48.369Z,71.00
2023-02-26T02:12:35.403Z,71.00
2023-02-26T02:15:38.907Z,71.00
2023-02-26T02:18:15.199Z,71.20
2023-02-26T02:21:07.216Z,71.10
2023-02-26T02:24:02.089Z,70.80
2023-02-26T02:27:02.090Z,70.80
2023-02-26T02:29:40.493Z,71.00
2023-02-26T02:32:16.831Z,71.00
2023-02-26T02:34:56.357Z,70.90
2023-02-26T02:37:36.469Z,70.90
2023-02-26T02:40:15.916Z,71.10
2023-02-26T02:42:59.442Z,71.10
2023-02-26T02:45:59.595Z,71.10
2023-02-26T02:48:49.346Z,71.00
2023-02-26T02:51:23.144Z,71.00
2023-02-26T02:53:54.944Z,71.00
2023-02-26T02:56:30.614Z,71.10
2023-02-26T02:59:16.333Z,71.10
2023-02-26T03:01:45.848Z,71.10
2023-02-26T03:04:19.077Z,71.20
2023-02-26T03:06:46.913Z,71.10
2023-02-26T03:09:14.049Z,71.10
2023-02-26T03:11:41.621Z,71.20
2023-02-26T03:14:10.501Z,71.10
2023-02-26T03:16:56.641Z,71.10
2023-02-26T03:19:26.564Z,71.20
2023-02-26T03:22:05.436Z,71.30
2023-02-26T03:25:09.874Z,71.40
2023-02-26T03:27:55.846Z,71.40
2023-02-26T03:30:27.144Z,71.50
2023-02-26T03:33:06.159Z,71.60
2023-02-26T03:35:52.121Z,71.50
2023-02-26T03:38:49.891Z,71.40
2023-02-26T03:41:24.390Z,71.30
2023-02-26T03:44:05.363Z,71.40
2023-02-26T03:46:45.525Z,71.40
2023-02-26T03:49:20.572Z,71.30
2023-02-26T03:51:48.138Z,71.30
2023-02-26T03:55:17.602Z,71.40
2023-02-26T03:58:07.637Z,71.30
2023-02-26T04:01:04.049Z,71.20
2023-02-26T04:03:41.848Z,70.90
2023-02-26T04:06:09.194Z,70.90
2023-02-26T04:08:36.905Z,70.60
2023-02-26T04:11:17.332Z,70.60
2023-02-26T04:13:45.232Z,71.50
2023-02-26T04:16:12.695Z,70.60
2023-02-26T04:18:41.208Z,70.50
2023-02-26T04:21:13.115Z,70.60
2023-02-26T04:23:40.367Z,70.50
2023-02-26T04:26:07.662Z,70.40
2023-02-26T04:28:38.004Z,70.50
2023-02-26T04:31:07.526Z,70.30
2023-02-26T04:33:34.807Z,70.40
2023-02-26T04:36:02.389Z,70.50
2023-02-26T04:38:29.845Z,70.40
2023-02-26T04:40:57.797Z,70.30
2023-02-26T04:43:27.711Z,70.20
2023-02-26T04:46:15.434Z,70.20
2023-02-26T04:48:42.776Z,70.30
2023-02-26T04:51:10.283Z,70.30
2023-02-26T04:53:37.546Z,70.30
2023-02-26T04:56:04.843Z,71.10
2023-02-26T04:58:32.118Z,70.20
2023-02-26T05:01:05.064Z,70.30
2023-02-26T05:03:32.298Z,70.20
2023-02-26T05:05:59.460Z,70.10
2023-02-26T05:08:26.743Z,70.10
2023-02-26T05:10:54.808Z,70.10
2023-02-26T05:13:22.188Z,70.10
2023-02-26T05:15:49.259Z,70.00
2023-02-26T05:18:16.378Z,70.10
2023-02-26T05:20:43.436Z,70.10
2023-02-26T05:23:11.138Z,70.10
2023-02-26T05:25:39.716Z,70.00
2023-02-26T05:28:06.891Z,70.00
2023-02-26T05:30:34.274Z,69.90
2023-02-26T05:33:01.421Z,69.90
2023-02-26T05:35:28.512Z,69.90
2023-02-26T05:37:55.632Z,70.00
2023-02-26T05:40:23.231Z,70.00
2023-02-26T05:42:50.566Z,70.10
2023-02-26T05:45:17.728Z,70.20
2023-02-26T05:47:45.008Z,70.10
2023-02-26T05:50:12.560Z,70.20
2023-02-26T05:52:39.741Z,70.20
2023-02-26T05:55:07.824Z,70.10
2023-02-26T05:57:35.016Z,70.00
2023-02-26T06:00:02.583Z,70.10
2023-02-26T06:02:40.286Z,70.30
2023-02-26T06:05:08.427Z,70.20
2023-02-26T06:07:35.762Z,70.10
2023-02-26T06:10:02.957Z,70.00
2023-02-26T06:12:30.108Z,70.00
2023-02-26T06:14:57.241Z,70.00
2023-02-26T06:17:24.329Z,70.00
2023-02-26T06:19:52.158Z,70.30
2023-02-26T06:22:20.086Z,70.20
2023-02-26T06:24:47.131Z,70.00
2023-02-26T06:27:14.348Z,70.00
2023-02-26T06:29:41.489Z,69.90
2023-02-26T06:32:09.054Z,69.80
2023-02-26T06:34:36.119Z,69.80
2023-02-26T06:37:03.590Z,69.90
2023-02-26T06:39:30.907Z,69.80
2023-02-26T06:41:58.049Z,69.90
2023-02-26T06:44:25.211Z,70.10
2023-02-26T06:46:52.752Z,70.10
2023-02-26T06:49:20.029Z,70.10
2023-02-26T06:51:47.558Z,70.20
2023-02-26T06:54:14.818Z,70.20
2023-02-26T06:56:41.913Z,70.10
2023-02-26T06:59:09.144Z,69.90
2023-02-26T07:01:36.239Z,70.00
2023-02-26T07:04:03.437Z,69.90
2023-02-26T07:06:30.492Z,69.70
2023-02-26T07:08:57.707Z,69.80
2023-02-26T07:11:25.362Z,69.90
2023-02-26T07:13:52.572Z,69.90
2023-02-26T07:16:19.557Z,69.90
2023-02-26T07:18:46.712Z,69.80
2023-02-26T07:21:13.902Z,69.80
2023-02-26T07:23:41.199Z,69.90
2023-02-26T07:26:13.434Z,70.00
2023-02-26T07:28:40.596Z,70.10
2023-02-26T07:31:07.698Z,70.20
2023-02-26T07:33:35.410Z,70.40
2023-02-26T07:36:02.587Z,70.20
2023-02-26T07:38:29.771Z,70.20
2023-02-26T07:40:57.264Z,69.80
2023-02-26T07:43:26.721Z,69.60
2023-02-26T07:45:54.640Z,69.10
2023-02-26T07:48:22.163Z,68.90
2023-02-26T07:50:52.533Z,68.90
2023-02-26T07:53:20.322Z,68.80
2023-02-26T07:55:47.796Z,68.90
2023-02-26T07:58:15.138Z,68.70
2023-02-26T08:00:42.292Z,68.50
2023-02-26T08:03:09.463Z,69.30
2023-02-26T08:05:36.756Z,68.30
2023-02-26T08:08:04.570Z,68.30
2023-02-26T08:10:31.804Z,68.40
2023-02-26T08:12:59.011Z,68.60
2023-02-26T08:15:26.177Z,68.80
2023-02-26T08:17:53.821Z,68.80
2023-02-26T08:20:21.068Z,68.70
2023-02-26T08:22:48.288Z,68.30
2023-02-26T08:25:15.527Z,68.40
2023-02-26T08:27:43.188Z,68.90
2023-02-26T08:30:14.270Z,69.00
2023-02-26T08:32:42.756Z,68.70
2023-02-26T08:35:19.597Z,68.70
2023-02-26T08:37:46.779Z,68.40
2023-02-26T08:40:15.338Z,68.10
2023-02-26T08:42:42.542Z,67.90
2023-02-26T08:45:10.336Z,67.10
2023-02-26T08:47:42.337Z,66.10
2023-02-26T08:50:15.985Z,65.90
2023-02-26T08:52:43.164Z,65.40
2023-02-26T08:55:10.862Z,64.90
2023-02-26T08:57:38.024Z,65.30
2023-02-26T09:00:10.597Z,65.10
2023-02-26T09:02:38.694Z,65.70
2023-02-26T09:05:06.690Z,64.60
2023-02-26T09:07:33.828Z,64.50
2023-02-26T09:10:01.020Z,65.00
2023-02-26T09:12:28.033Z,65.90
2023-02-26T09:14:55.259Z,66.80
2023-02-26T09:17:22.194Z,66.90
2023-02-26T09:19:49.298Z,67.20
2023-02-26T09:22:16.601Z,68.60
2023-02-26T09:24:43.707Z,68.00
2023-02-26T09:27:10.897Z,66.80
2023-02-26T09:29:38.171Z,64.70
2023-02-26T09:32:08.562Z,63.60
2023-02-26T09:34:36.333Z,61.40
2023-02-26T09:37:08.862Z,60.90
2023-02-26T09:39:36.926Z,62.00
2023-02-26T09:42:08.805Z,60.80
2023-02-26T09:44:38.610Z,60.20
2023-02-26T09:47:21.637Z,58.70
2023-02-26T09:50:02.109Z,58.70
2023-02-26T09:52:44.380Z,59.20
2023-02-26T09:55:41.906Z,59.20
2023-02-26T09:58:40.068Z,58.80
2023-02-26T10:01:27.474Z,58.40
2023-02-26T10:03:54.756Z,58.20
2023-02-26T10:06:32.560Z,58.80
2023-02-26T10:09:02.769Z,59.40
2023-02-26T10:11:45.396Z,59.90
2023-02-26T10:14:43.480Z,59.50
2023-02-26T10:17:33.590Z,59.60
2023-02-26T10:20:11.502Z,62.20
2023-02-26T10:22:49.077Z,63.50
2023-02-26T10:25:22.403Z,63.40
2023-02-26T10:28:34.949Z,62.60
2023-02-26T10:31:32.683Z,61.40
2023-02-26T10:34:28.879Z,59.20
2023-02-26T10:37:17.429Z,57.10
2023-02-26T10:39:54.181Z,56.80
2023-02-26T10:42:33.663Z,55.80
2023-02-26T10:45:00.867Z,56.10
2023-02-26T10:47:44.615Z,55.30
2023-02-26T10:50:15.464Z,55.80
2023-02-26T10:52:44.943Z,55.50
2023-02-26T10:55:22.403Z,55.80
2023-02-26T10:58:01.129Z,55.80
2023-02-26T11:00:29.719Z,56.70
2023-02-26T11:02:57.508Z,57.50
2023-02-26T11:05:29.058Z,57.40
2023-02-26T11:08:13.519Z,57.80
2023-02-26T11:10:59.221Z,57.20
2023-02-26T11:13:28.802Z,57.10
2023-02-26T11:15:59.341Z,56.70
2023-02-26T11:18:48.236Z,56.70
2023-02-26T11:21:22.739Z,56.70
2023-02-26T11:23:58.557Z,56.20
2023-02-26T11:26:37.012Z,56.60
2023-02-26T11:29:05.607Z,56.50
2023-02-26T11:31:33.828Z,56.80
2023-02-26T11:34:05.139Z,57.20
2023-02-26T11:36:34.155Z,57.70
2023-02-26T11:39:13.802Z,57.80
2023-02-26T11:41:41.630Z,57.60
2023-02-26T11:44:13.975Z,57.70
2023-02-26T11:46:47.174Z,58.10
2023-02-26T11:49:17.530Z,58.20
2023-02-26T11:51:49.478Z,58.50
2023-02-26T11:54:27.381Z,58.50
2023-02-26T11:57:02.722Z,57.60
2023-02-26T11:59:32.130Z,57.40
2023-02-26T12:02:12.552Z,57.70
2023-02-26T12:04:43.537Z,57.80
2023-02-26T12:07:14.599Z,57.60
2023-02-26T12:09:42.442Z,57.00
2023-02-26T12:12:34.580Z,57.30
2023-02-26T12:15:21.681Z,58.00
2023-02-26T12:18:09.953Z,57.70
2023-02-26T12:20:55.898Z,57.80
2023-02-26T12:23:31.932Z,57.50
2023-02-26T12:26:14.883Z,55.90
2023-02-26T12:28:58.669Z,55.30
2023-02-26T12:31:38.308Z,56.10
2023-02-26T12:34:42.736Z,56.40
2023-02-26T12:37:34.323Z,56.20
2023-02-26T12:40:19.757Z,56.60
2023-02-26T12:43:08.726Z,56.90
2023-02-26T12:45:42.096Z,56.80
2023-02-26T12:48:31.238Z,56.70
2023-02-26T12:51:18.871Z,56.60
2023-02-26T12:54:05.284Z,56.60
2023-02-26T12:56:38.562Z,56.50
2023-02-26T12:59:23.917Z,56.50
2023-02-26T13:02:01.742Z,56.90
2023-02-26T13:04:47.343Z,57.60
2023-02-26T13:07:33.135Z,57.90
2023-02-26T13:10:07.608Z,58.10
2023-02-26T13:13:08.731Z,58.00
2023-02-26T13:15:53.732Z,58.30
2023-02-26T13:18:41.895Z,58.50
2023-02-26T13:21:28.415Z,57.70
2023-02-26T13:24:05.964Z,57.60
2023-02-26T13:26:34.720Z,57.50
2023-02-26T13:29:45.510Z,57.50
2023-02-26T13:32:22.772Z,56.90
2023-02-26T13:35:16.133Z,57.20
2023-02-26T13:37:49.544Z,57.00
2023-02-26T13:40:41.186Z,56.60
2023-02-26T13:43:31.895Z,56.40
2023-02-26T13:46:11.192Z,56.60
2023-02-26T13:49:02.661Z,56.60
2023-02-26T13:51:39.139Z,56.10
2023-02-26T13:54:14.277Z,56.60
2023-02-26T13:56:55.563Z,56.90
2023-02-26T13:59:37.837Z,57.10
2023-02-26T14:02:20.446Z,56.80
2023-02-26T14:05:00.537Z,56.40
2023-02-26T14:07:46.649Z,55.80
2023-02-26T14:10:37.182Z,55.70
2023-02-26T14:13:21.849Z,55.30
2023-02-26T14:16:28.097Z,55.60
2023-02-26T14:19:05.850Z,55.40
2023-02-26T14:21:42.644Z,55.20
2023-02-26T14:24:09.733Z,54.90
2023-02-26T14:26:37.952Z,54.90
2023-02-26T14:29:04.958Z,55.30
2023-02-26T14:31:52.123Z,55.40
2023-02-26T14:34:26.442Z,55.50
2023-02-26T14:36:56.351Z,56.00
2023-02-26T14:39:41.389Z,56.00
2023-02-26T14:42:12.380Z,56.20
2023-02-26T14:44:54.839Z,56.20
2023-02-26T14:47:22.183Z,56.60
2023-02-26T14:49:49.799Z,56.30
2023-02-26T14:52:36.317Z,56.10
2023-02-26T14:55:22.557Z,55.70
2023-02-26T14:58:28.077Z,55.30
2023-02-26T15:01:21.940Z,55.50
2023-02-26T15:04:16.901Z,55.50
2023-02-26T15:06:59.632Z,55.30
2023-02-26T15:09:51.747Z,55.70
2023-02-26T15:12:44.532Z,55.40
2023-02-26T15:15:24.736Z,54.70
2023-02-26T15:18:19.312Z,54.90
2023-02-26T15:21:13.146Z,54.90
2023-02-26T15:23:49.112Z,55.10
2023-02-26T15:26:28.671Z,55.00
2023-02-26T15:28:57.387Z,54.20
2023-02-26T15:31:43.121Z,54.60
2023-02-26T15:34:13.047Z,54.90
2023-02-26T15:36:45.100Z,55.00
2023-02-26T15:39:16.039Z,55.30
2023-02-26T15:41:46.907Z,55.30
2023-02-26T15:44:21.052Z,55.40
2023-02-26T15:46:53.837Z,55.10
2023-02-26T15:49:37.259Z,55.30
2023-02-26T15:52:07.973Z,55.50
2023-02-26T15:54:42.659Z,55.80
2023-02-26T15:57:12.404Z,56.00
2023-02-26T15:59:51.187Z,56.20
2023-02-26T16:02:26.968Z,56.50
2023-02-26T16:04:54.161Z,56.50
2023-02-26T16:07:22.550Z,56.60
2023-02-26T16:09:54.554Z,56.60
2023-02-26T16:12:34.545Z,56.70
2023-02-26T16:15:05.841Z,56.50
2023-02-26T16:17:35.844Z,56.20
2023-02-26T16:20:07.651Z,56.30
2023-02-26T16:22:42.027Z,56.60
2023-02-26T16:25:17.561Z,56.20
2023-02-26T16:27:48.295Z,55.70
2023-02-26T16:30:22.758Z,55.60
2023-02-26T16:32:53.666Z,55.80
2023-02-26T16:35:24.504Z,55.60
2023-02-26T16:37:55.228Z,55.60
2023-02-26T16:40:34.687Z,55.70
2023-02-26T16:43:05.303Z,55.50
2023-02-26T16:45:35.729Z,55.10
2023-02-26T16:48:14.574Z,55.20
2023-02-26T16:50:41.976Z,55.30
2023-02-26T16:53:12.650Z,55.50
2023-02-26T16:55:40.363Z,55.80
2023-02-26T16:58:11.122Z,55.80
2023-02-26T17:00:39.540Z,55.80
2023-02-26T17:03:10.506Z,55.50
2023-02-26T17:05:42.341Z,55.70
2023-02-26T17:08:19.237Z,55.70
2023-02-26T17:10:54.523Z,55.10
2023-02-26T17:13:30.614Z,55.50
2023-02-26T17:16:07.766Z,55.60
2023-02-26T17:18:34.888Z,55.60
2023-02-26T17:21:06.844Z,55.60
2023-02-26T17:23:37.639Z,55.80
2023-02-26T17:26:06.277Z,55.70
2023-02-26T17:28:37.170Z,55.50
2023-02-26T17:31:05.062Z,55.50
2023-02-26T17:33:32.692Z,55.60
2023-02-26T17:36:01.806Z,55.70
2023-02-26T17:38:29.217Z,55.80
2023-02-26T17:40:58.389Z,55.90
2023-02-26T17:43:29.160Z,56.00
2023-02-26T17:45:56.486Z,56.10
2023-02-26T17:48:23.793Z,56.30
2023-02-26T17:50:52.440Z,56.40
2023-02-26T17:53:21.424Z,56.30
2023-02-26T17:55:52.370Z,56.20
2023-02-26T17:58:28.718Z,56.30
2023-02-26T18:00:56.531Z,56.50
2023-02-26T18:03:23.950Z,56.50
2023-02-26T18:05:54.732Z,56.80
2023-02-26T18:08:33.750Z,56.70
2023-02-26T18:11:02.643Z,56.60
2023-02-26T18:13:30.509Z,56.60
2023-02-26T18:16:01.080Z,56.70
2023-02-26T18:18:29.299Z,56.60
2023-02-26T18:20:56.684Z,56.40
2023-02-26T18:23:24.185Z,56.60
2023-02-26T18:25:54.031Z,56.70
2023-02-26T18:28:26.966Z,56.70
2023-02-26T18:30:55.658Z,56.70
2023-02-26T18:33:23.805Z,56.80
2023-02-26T18:35:55.167Z,56.70
2023-02-26T18:38:25.412Z,56.70
2023-02-26T18:40:53.921Z,56.70
2023-02-26T18:43:21.541Z,56.70
2023-02-26T18:45:50.329Z,56.50
2023-02-26T18:48:19.874Z,56.60
2023-02-26T18:50:48.205Z,56.80
2023-02-26T18:53:17.270Z,56.50
2023-02-26T18:55:45.205Z,56.50
2023-02-26T18:58:13.257Z,56.80
2023-02-26T19:00:43.519Z,56.80
2023-02-26T19:03:10.656Z,57.00
2023-02-26T19:05:38.272Z,57.10
2023-02-26T19:08:06.119Z,57.20
2023-02-26T19:10:34.383Z,57.40
2023-02-26T19:13:02.328Z,57.40
2023-02-26T19:15:29.533Z,57.10
2023-02-26T19:17:56.722Z,57.00
2023-02-26T19:20:24.074Z,57.10
2023-02-26T19:22:51.445Z,57.20
2023-02-26T19:25:23.964Z,57.30
2023-02-26T19:27:53.661Z,57.30
2023-02-26T19:30:22.151Z,57.50
2023-02-26T19:32:50.219Z,57.70
2023-02-26T19:35:18.189Z,57.50
2023-02-26T19:37:45.556Z,57.60
2023-02-26T19:40:16.675Z,57.80
2023-02-26T19:42:44.235Z,58.00
2023-02-26T19:45:13.770Z,58.10
2023-02-26T19:47:41.454Z,58.40
2023-02-26T19:50:09.974Z,58.40
2023-02-26T19:52:37.464Z,58.60
2023-02-26T19:55:08.849Z,58.50
2023-02-26T19:57:36.880Z,58.70
2023-02-26T20:00:05.626Z,58.70
2023-02-26T20:02:39.329Z,58.80
2023-02-26T20:05:07.749Z,58.90
2023-02-26T20:07:35.000Z,59.00
2023-02-26T20:10:02.148Z,59.00
2023-02-26T20:12:30.418Z,59.10
2023-02-26T20:14:57.812Z,59.40
2023-02-26T20:17:24.812Z,59.40
2023-02-26T20:19:51.898Z,59.50
2023-02-26T20:22:21.292Z,59.70
2023-02-26T20:24:48.620Z,59.80
2023-02-26T20:27:15.759Z,59.80
2023-02-26T20:29:42.805Z,59.80
2023-02-26T20:32:10.083Z,59.90
2023-02-26T20:34:37.284Z,60.00
2023-02-26T20:37:04.583Z,60.10
2023-02-26T20:39:31.711Z,60.20
2023-02-26T20:41:58.883Z,60.30
2023-02-26T20:44:26.072Z,60.10
2023-02-26T20:46:54.746Z,60.20
2023-02-26T20:49:25.673Z,60.40
2023-02-26T20:51:52.827Z,60.30
2023-02-26T20:54:20.431Z,60.30
2023-02-26T20:56:48.837Z,60.40
2023-02-26T20:59:19.492Z,60.60
2023-02-26T21:01:47.574Z,60.50
2023-02-26T21:04:14.819Z,60.60
2023-02-26T21:06:41.928Z,60.80
2023-02-26T21:09:11.149Z,60.70
2023-02-26T21:11:39.065Z,60.80
2023-02-26T21:14:07.765Z,60.70
2023-02-26T21:16:35.491Z,60.80
2023-02-26T21:19:04.485Z,60.80
2023-02-26T21:21:31.996Z,60.90
2023-02-26T21:23:59.310Z,61.00
2023-02-26T21:26:27.760Z,61.10
2023-02-26T21:28:55.108Z,61.10
2023-02-26T21:31:22.486Z,61.10
2023-02-26T21:33:49.955Z,61.10
2023-02-26T21:36:17.055Z,61.00
2023-02-26T21:38:44.377Z,61.00
2023-02-26T21:41:11.448Z,61.10
2023-02-26T21:43:39.343Z,61.20
2023-02-26T21:46:06.812Z,61.20
2023-02-26T21:48:34.164Z,61.20
2023-02-26T21:51:01.651Z,61.30
2023-02-26T21:53:28.843Z,61.40
2023-02-26T21:55:56.935Z,61.50
2023-02-26T21:58:25.480Z,61.40
2023-02-26T22:00:53.249Z,61.50
2023-02-26T22:03:20.560Z,61.40
2023-02-26T22:05:51.290Z,61.30
2023-02-26T22:08:18.882Z,61.50
2023-02-26T22:10:46.428Z,61.50
2023-02-26T22:13:13.690Z,61.50
2023-02-26T22:15:41.841Z,61.60
2023-02-26T22:18:09.135Z,61.60
2023-02-26T22:20:36.150Z,61.80
2023-02-26T22:23:04.689Z,61.90
2023-02-26T22:25:32.220Z,61.90
2023-02-26T22:27:59.745Z,62.10
2023-02-26T22:30:27.013Z,62.10
2023-02-26T22:32:53.921Z,62.20
2023-02-26T22:35:21.022Z,62.20
2023-02-26T22:37:48.329Z,62.20
2023-02-26T22:40:15.985Z,62.10
2023-02-26T22:42:44.205Z,62.20
2023-02-26T22:45:17.283Z,62.20
2023-02-26T22:47:48.446Z,62.30
2023-02-26T22:50:16.283Z,62.40
2023-02-26T22:52:44.195Z,62.40
2023-02-26T22:55:11.869Z,62.30
2023-02-26T22:57:39.051Z,62.40
2023-02-26T23:00:11.447Z,62.20
2023-02-26T23:02:39.113Z,62.10
2023-02-26T23:05:09.258Z,62.00
2023-02-26T23:07:37.648Z,62.00
2023-02-26T23:10:07.666Z,62.00
2023-02-26T23:12:35.180Z,62.00
2023-02-26T23:15:03.096Z,62.10
2023-02-26T23:17:30.435Z,62.10
2023-02-26T23:19:57.492Z,62.10
2023-02-26T23:22:24.953Z,62.00
2023-02-26T23:24:52.035Z,61.90
2023-02-26T23:27:19.272Z,61.90
2023-02-26T23:29:46.451Z,62.00
2023-02-26T23:32:14.441Z,62.00
2023-02-26T23:34:41.657Z,62.10
2023-02-26T23:37:08.776Z,61.90
2023-02-26T23:39:35.719Z,61.90
2023-02-26T23:42:02.873Z,62.00
2023-02-26T23:44:30.058Z,62.00
2023-02-26T23:46:57.146Z,61.90
2023-02-26T23:49:24.184Z,61.90
2023-02-26T23:51:51.584Z,61.80
2023-02-26T23:54:18.772Z,61.70
2023-02-26T23:56:47.425Z,61.90
2023-02-26T23:59:14.870Z,61.70
